Terminal Aerodrome Forecast
Issued by NWS Houston/Galveston, TX

Home | Current Version | Previous Version | Text Only | Print | Product List | Glossary On
Versions: 1 2 3 4 5 6 7 8 9 10 11 12 13 14 15 16 17 18
000
FTUS44 KHGX 212336
TAFGLS
TAF
KGLS 212336Z 2200/2224 13010KT P6SM VCSH SCT020 BKN030 BKN040
     FM220200 13004KT P6SM BKN025
     FM220900 15008KT P6SM FEW020
     FM221600 12009KT P6SM VCSH SCT030
     FM222100 10009KT P6SM FEW250=

USA.gov is the U.S. government's official web portal to all federal, state and local government web resources and services.